createdAt,value
2023-03-07T00:00:15.275Z,99635.41
2023-03-07T00:02:42.252Z,99626.09
2023-03-07T00:05:09.875Z,99641.28
2023-03-07T00:07:37.139Z,99638.03
2023-03-07T00:10:04.424Z,99619.22
2023-03-07T00:12:31.414Z,99627.50
2023-03-07T00:14:58.398Z,99625.69
2023-03-07T00:17:25.304Z,99619.81
2023-03-07T00:19:52.511Z,99620.00
2023-03-07T00:22:19.579Z,99613.31
2023-03-07T00:24:48.642Z,99611.69
2023-03-07T00:27:15.731Z,99615.34
2023-03-07T00:29:42.639Z,99618.38
2023-03-07T00:32:09.596Z,99596.09
2023-03-07T00:34:36.730Z,99597.28
2023-03-07T00:37:03.675Z,99602.75
2023-03-07T00:39:30.744Z,99592.00
2023-03-07T00:41:57.739Z,99578.63
2023-03-07T00:44:25.492Z,99573.34
2023-03-07T00:46:53.064Z,99558.34
2023-03-07T00:49:20.902Z,99566.44
2023-03-07T00:51:48.324Z,99567.66
2023-03-07T00:54:16.339Z,99555.50
2023-03-07T00:56:43.693Z,99562.56
2023-03-07T00:59:11.041Z,99552.63
2023-03-07T01:01:38.701Z,99550.00
2023-03-07T01:04:05.811Z,99537.63
2023-03-07T01:06:34.208Z,99539.22
2023-03-07T01:09:07.226Z,99525.84
2023-03-07T01:11:36.037Z,99538.19
2023-03-07T01:14:05.825Z,99522.53
2023-03-07T01:16:37.992Z,99509.34
2023-03-07T01:19:12.583Z,99516.25
2023-03-07T01:21:42.655Z,99506.72
2023-03-07T01:24:15.192Z,99496.75
2023-03-07T01:26:42.896Z,99485.19
2023-03-07T01:29:12.263Z,99487.19
2023-03-07T01:31:39.600Z,99467.94
2023-03-07T01:34:07.598Z,99469.56
2023-03-07T01:36:36.456Z,99456.78
2023-03-07T01:39:17.675Z,99460.03
2023-03-07T01:41:52.477Z,99457.16
2023-03-07T01:44:25.866Z,99448.50
2023-03-07T01:46:56.180Z,99440.38
2023-03-07T01:49:52.817Z,99431.00
2023-03-07T01:52:43.264Z,99422.09
2023-03-07T01:55:27.204Z,99417.63
2023-03-07T01:58:06.825Z,99396.75
2023-03-07T02:00:36.218Z,99408.84
2023-03-07T02:03:20.602Z,99403.94
2023-03-07T02:05:55.885Z,99379.63
2023-03-07T02:08:27.607Z,99374.72
2023-03-07T02:10:54.908Z,99375.91
2023-03-07T02:13:21.982Z,99373.28
2023-03-07T02:15:51.069Z,99367.34
2023-03-07T02:18:24.981Z,99362.25
2023-03-07T02:21:12.236Z,99367.66
2023-03-07T02:24:12.325Z,99351.41
2023-03-07T02:26:49.916Z,99348.19
2023-03-07T02:29:17.103Z,99345.47
2023-03-07T02:31:47.096Z,99339.19
2023-03-07T02:34:24.900Z,99329.44
2023-03-07T02:37:31.373Z,99314.97
2023-03-07T02:40:01.777Z,99292.88
2023-03-07T02:42:33.080Z,99310.09
2023-03-07T02:45:10.289Z,99305.72
2023-03-07T02:47:38.936Z,99290.91
2023-03-07T02:50:07.094Z,99301.84
2023-03-07T02:52:37.140Z,99289.81
2023-03-07T02:55:04.773Z,99273.63
2023-03-07T02:57:36.022Z,99274.72
2023-03-07T03:00:10.058Z,99264.97
2023-03-07T03:02:37.064Z,99259.47
2023-03-07T03:05:04.872Z,99245.09
2023-03-07T03:07:31.927Z,99251.47
2023-03-07T03:09:59.090Z,99250.22
2023-03-07T03:12:26.214Z,99239.44
2023-03-07T03:14:53.277Z,99217.00
2023-03-07T03:17:20.312Z,99209.44
2023-03-07T03:19:47.443Z,99216.47
2023-03-07T03:22:14.463Z,99219.47
2023-03-07T03:24:45.218Z,99212.34
2023-03-07T03:27:15.236Z,99199.97
2023-03-07T03:29:43.935Z,99162.38
2023-03-07T03:32:12.369Z,99199.28
2023-03-07T03:34:42.391Z,99182.88
2023-03-07T03:37:09.357Z,99182.28
2023-03-07T03:39:37.626Z,99181.38
2023-03-07T03:42:06.163Z,99169.88
2023-03-07T03:44:33.682Z,99161.50
2023-03-07T03:47:01.592Z,99161.88
2023-03-07T03:49:29.748Z,99144.41
2023-03-07T03:51:56.856Z,99131.00
2023-03-07T03:54:24.627Z,99145.34
2023-03-07T03:56:53.793Z,99131.69
2023-03-07T03:59:22.179Z,99111.47
2023-03-07T04:01:50.191Z,99129.75
2023-03-07T04:04:18.991Z,99112.41
2023-03-07T04:06:46.092Z,99093.56
2023-03-07T04:09:13.081Z,99110.56
2023-03-07T04:11:42.843Z,99116.78
2023-03-07T04:14:10.042Z,99104.38
2023-03-07T04:16:37.091Z,99098.41
2023-03-07T04:19:04.222Z,99096.34
2023-03-07T04:21:31.224Z,99081.88
2023-03-07T04:23:59.904Z,99083.06
2023-03-07T04:26:31.485Z,99076.50
2023-03-07T04:28:58.901Z,99075.03
2023-03-07T04:31:36.027Z,99067.44
2023-03-07T04:34:04.771Z,99058.69
2023-03-07T04:36:32.366Z,99058.00
2023-03-07T04:38:59.441Z,99056.50
2023-03-07T04:41:27.011Z,99048.59
2023-03-07T04:44:07.829Z,99039.97
2023-03-07T04:46:35.633Z,99037.44
2023-03-07T04:49:02.932Z,99033.97
2023-03-07T04:51:29.956Z,99033.75
2023-03-07T04:53:56.884Z,99034.88
2023-03-07T04:56:23.836Z,99032.00
2023-03-07T04:58:50.956Z,99025.81
2023-03-07T05:01:19.181Z,99020.19
2023-03-07T05:03:47.197Z,99017.09
2023-03-07T05:06:16.373Z,99027.22
2023-03-07T05:08:47.840Z,99005.84
2023-03-07T05:11:15.199Z,99012.53
2023-03-07T05:13:42.586Z,98982.06
2023-03-07T05:16:10.459Z,98991.72
2023-03-07T05:18:37.681Z,98990.00
2023-03-07T05:21:04.905Z,98990.09
2023-03-07T05:23:31.920Z,98986.78
2023-03-07T05:25:58.938Z,98981.16
2023-03-07T05:28:26.071Z,98999.88
2023-03-07T05:30:53.549Z,98977.13
2023-03-07T05:33:21.417Z,98968.88
2023-03-07T05:35:48.771Z,98964.63
2023-03-07T05:38:16.839Z,98979.66
2023-03-07T05:40:44.165Z,98988.38
2023-03-07T05:43:12.352Z,98988.06
2023-03-07T05:45:39.619Z,98999.41
2023-03-07T05:48:06.701Z,98977.25
2023-03-07T05:50:33.763Z,98964.28
2023-03-07T05:53:00.907Z,98975.06
2023-03-07T05:55:30.644Z,98976.69
2023-03-07T05:57:58.404Z,98972.44
2023-03-07T06:00:26.223Z,98960.25
2023-03-07T06:02:57.408Z,98960.84
2023-03-07T06:05:25.528Z,98978.28
2023-03-07T06:07:53.521Z,98964.97
2023-03-07T06:10:21.200Z,98962.56
2023-03-07T06:12:55.185Z,98955.78
2023-03-07T06:15:24.562Z,98964.50
2023-03-07T06:17:57.677Z,98951.53
2023-03-07T06:20:25.353Z,98957.63
2023-03-07T06:22:54.802Z,98956.94
2023-03-07T06:25:21.961Z,98960.03
2023-03-07T06:27:50.007Z,98960.13
2023-03-07T06:30:17.401Z,98946.13
2023-03-07T06:32:45.228Z,98956.69
2023-03-07T06:35:12.340Z,98957.03
2023-03-07T06:37:39.423Z,98964.72
2023-03-07T06:40:09.333Z,98961.03
2023-03-07T06:42:38.182Z,98959.31
2023-03-07T06:45:06.498Z,98965.19
2023-03-07T06:47:34.119Z,98959.44
2023-03-07T06:50:02.370Z,98975.53
2023-03-07T06:52:30.874Z,98976.34
2023-03-07T06:55:00.568Z,98963.13
2023-03-07T06:57:29.380Z,98968.97
2023-03-07T06:59:56.669Z,98965.88
2023-03-07T07:02:24.033Z,98961.25
2023-03-07T07:04:51.300Z,98966.56
2023-03-07T07:07:20.263Z,98965.19
2023-03-07T07:09:47.611Z,98961.59
2023-03-07T07:12:14.686Z,98970.78
2023-03-07T07:14:41.702Z,98966.06
2023-03-07T07:17:09.052Z,98967.44
2023-03-07T07:19:36.610Z,98962.94
2023-03-07T07:22:04.264Z,98962.25
2023-03-07T07:24:31.317Z,98960.41
2023-03-07T07:26:58.808Z,98968.66
2023-03-07T07:29:26.321Z,98954.97
2023-03-07T07:31:54.012Z,98962.44
2023-03-07T07:34:21.817Z,98962.31
2023-03-07T07:36:48.867Z,98946.44
2023-03-07T07:39:18.088Z,98954.47
2023-03-07T07:41:47.913Z,98954.31
2023-03-07T07:44:16.904Z,98949.69
2023-03-07T07:46:54.771Z,98959.78
2023-03-07T07:49:21.891Z,98950.09
2023-03-07T07:51:49.947Z,98946.75
2023-03-07T07:54:17.158Z,98943.91
2023-03-07T07:56:44.578Z,98946.72
2023-03-07T07:59:12.451Z,98940.72
2023-03-07T08:01:39.776Z,98931.50
2023-03-07T08:04:07.961Z,98937.19
2023-03-07T08:06:35.034Z,98952.84
2023-03-07T08:09:02.592Z,98944.34
2023-03-07T08:11:29.567Z,98939.84
2023-03-07T08:13:56.730Z,98940.50
2023-03-07T08:16:24.229Z,98946.25
2023-03-07T08:18:57.064Z,98933.03
2023-03-07T08:21:25.710Z,98943.13
2023-03-07T08:23:55.082Z,98941.63
2023-03-07T08:26:22.766Z,98947.72
2023-03-07T08:28:50.049Z,98943.31
2023-03-07T08:31:24.235Z,98935.34
2023-03-07T08:33:52.377Z,98938.50
2023-03-07T08:36:20.055Z,98934.22
2023-03-07T08:38:52.194Z,98941.78
2023-03-07T08:41:22.396Z,98935.34
2023-03-07T08:43:49.704Z,98937.38
2023-03-07T08:46:17.306Z,98932.31
2023-03-07T08:48:44.645Z,98937.75
2023-03-07T08:51:15.684Z,98936.47
2023-03-07T08:53:44.125Z,98930.81
2023-03-07T08:56:14.976Z,98931.19
2023-03-07T08:58:42.480Z,98933.47
2023-03-07T09:01:10.250Z,98939.88
2023-03-07T09:03:37.387Z,98934.72
2023-03-07T09:06:05.653Z,98932.75
2023-03-07T09:08:33.174Z,98934.81
2023-03-07T09:11:03.445Z,98935.47
2023-03-07T09:13:31.265Z,98932.94
2023-03-07T09:15:59.038Z,98936.53
2023-03-07T09:18:26.333Z,98926.22
2023-03-07T09:20:53.378Z,98934.47
2023-03-07T09:23:20.426Z,98941.22
2023-03-07T09:25:47.494Z,98933.03
2023-03-07T09:28:14.712Z,98924.38
2023-03-07T09:30:41.798Z,98928.38
2023-03-07T09:33:08.889Z,98904.03
2023-03-07T09:35:37.452Z,98923.53
2023-03-07T09:38:04.616Z,98935.63
2023-03-07T09:40:35.766Z,98915.28
2023-03-07T09:43:15.191Z,98928.75
2023-03-07T09:46:28.594Z,98919.03
2023-03-07T09:49:14.017Z,98913.53
2023-03-07T09:51:46.897Z,98926.09
2023-03-07T09:54:33.020Z,98919.50
2023-03-07T09:57:02.595Z,98922.44
2023-03-07T09:59:49.081Z,98926.19
2023-03-07T10:02:36.387Z,98917.19
2023-03-07T10:05:32.000Z,98911.34
2023-03-07T10:08:01.658Z,98907.34
2023-03-07T10:10:41.910Z,98907.16
2023-03-07T10:13:45.831Z,98922.00
2023-03-07T10:16:29.295Z,98909.75
2023-03-07T10:19:20.937Z,98910.81
2023-03-07T10:22:24.404Z,98905.50
2023-03-07T10:25:08.764Z,98923.75
2023-03-07T10:27:35.875Z,98923.97
2023-03-07T10:30:19.280Z,98918.16
2023-03-07T10:32:51.161Z,98917.88
2023-03-07T10:35:39.046Z,98913.63
2023-03-07T10:38:30.186Z,98925.28
2023-03-07T10:41:04.003Z,98907.97
2023-03-07T10:43:33.862Z,98921.47
2023-03-07T10:46:27.070Z,98920.94
2023-03-07T10:49:08.773Z,98912.09
2023-03-07T10:52:26.834Z,98928.53
2023-03-07T10:54:55.044Z,98913.53
2023-03-07T10:57:28.087Z,98924.69
2023-03-07T10:59:55.050Z,98909.25
2023-03-07T11:02:35.405Z,98915.06
2023-03-07T11:05:45.324Z,98899.84
2023-03-07T11:08:36.248Z,98899.56
2023-03-07T11:11:05.277Z,98923.41
2023-03-07T11:13:32.557Z,98899.19
2023-03-07T11:16:19.183Z,98888.25
2023-03-07T11:18:46.773Z,98911.09
2023-03-07T11:21:35.130Z,98889.59
2023-03-07T11:24:29.747Z,98878.94
2023-03-07T11:26:59.562Z,98895.97
2023-03-07T11:29:28.416Z,98882.06
2023-03-07T11:32:24.653Z,98892.69
2023-03-07T11:35:04.173Z,98877.75
2023-03-07T11:37:42.242Z,98861.06
2023-03-07T11:40:23.204Z,98890.97
2023-03-07T11:43:20.702Z,98877.41
2023-03-07T11:46:14.858Z,98844.13
2023-03-07T11:49:01.632Z,98879.28
2023-03-07T11:51:52.830Z,98867.00
2023-03-07T11:54:32.497Z,98857.66
2023-03-07T11:57:15.601Z,98864.81
2023-03-07T12:00:28.035Z,98863.69
2023-03-07T12:03:18.571Z,98848.22
2023-03-07T12:06:22.814Z,98856.78
2023-03-07T12:09:57.387Z,98848.91
2023-03-07T12:12:52.840Z,98855.19
2023-03-07T12:15:34.449Z,98855.19
2023-03-07T12:18:56.614Z,98848.09
2023-03-07T12:21:54.848Z,98848.41
2023-03-07T12:24:31.311Z,98854.75
2023-03-07T12:27:11.384Z,98858.75
2023-03-07T12:29:44.628Z,98860.34
2023-03-07T12:32:21.452Z,98863.56
2023-03-07T12:35:17.444Z,98856.41
2023-03-07T12:37:56.562Z,98852.94
2023-03-07T12:40:38.140Z,98846.78
2023-03-07T12:43:44.315Z,98843.88
2023-03-07T12:46:57.567Z,98854.81
2023-03-07T12:49:54.509Z,98851.84
2023-03-07T12:52:30.883Z,98848.66
2023-03-07T12:55:47.054Z,98845.94
2023-03-07T12:58:37.505Z,98837.31
2023-03-07T13:01:14.925Z,98851.56
2023-03-07T13:04:01.444Z,98845.66
2023-03-07T13:06:29.766Z,98852.81
2023-03-07T13:09:03.977Z,98857.00
2023-03-07T13:11:34.797Z,98861.19
2023-03-07T13:14:05.995Z,98858.47
2023-03-07T13:16:35.916Z,98862.19
2023-03-07T13:19:37.013Z,98873.03
2023-03-07T13:22:24.201Z,98867.84
2023-03-07T13:25:27.927Z,98866.50
2023-03-07T13:28:00.377Z,98874.69
2023-03-07T13:30:32.740Z,98875.19
2023-03-07T13:33:02.053Z,98871.47
2023-03-07T13:35:29.159Z,98876.69
2023-03-07T13:38:15.001Z,98888.91
2023-03-07T13:40:58.373Z,98882.31
2023-03-07T13:43:27.797Z,98871.88
2023-03-07T13:46:01.720Z,98875.00
2023-03-07T13:48:28.833Z,98875.31
2023-03-07T13:50:55.939Z,98876.59
2023-03-07T13:53:30.057Z,98882.47
2023-03-07T13:56:15.671Z,98883.03
2023-03-07T13:59:07.113Z,98885.91
2023-03-07T14:01:49.104Z,98876.47
2023-03-07T14:04:39.462Z,98879.91
2023-03-07T14:07:43.210Z,98875.06
2023-03-07T14:10:23.790Z,98873.72
2023-03-07T14:13:04.965Z,98874.75
2023-03-07T14:15:57.162Z,98869.16
2023-03-07T14:19:11.785Z,98881.16
2023-03-07T14:21:54.750Z,98871.56
2023-03-07T14:25:14.209Z,98865.47
2023-03-07T14:28:02.500Z,98861.69
2023-03-07T14:30:33.633Z,98850.78
2023-03-07T14:33:01.438Z,98848.69
2023-03-07T14:35:45.137Z,98851.09
2023-03-07T14:38:25.885Z,98858.81
2023-03-07T14:41:18.033Z,98844.50
2023-03-07T14:44:27.173Z,98845.31
2023-03-07T14:47:44.832Z,98853.03
2023-03-07T14:50:26.443Z,98857.28
2023-03-07T14:53:07.046Z,98850.38
2023-03-07T14:55:46.728Z,98855.53
2023-03-07T14:58:29.948Z,98861.13
2023-03-07T15:01:06.974Z,98864.34
2023-03-07T15:03:34.081Z,98855.09
2023-03-07T15:06:03.058Z,98878.53
2023-03-07T15:08:35.463Z,98855.59
2023-03-07T15:11:22.614Z,98849.53
2023-03-07T15:13:49.471Z,98863.53
2023-03-07T15:16:25.547Z,98861.19
2023-03-07T15:19:15.352Z,98871.19
2023-03-07T15:21:56.583Z,98875.69
2023-03-07T15:24:32.529Z,98885.28
2023-03-07T15:27:01.068Z,98866.50
2023-03-07T15:29:30.753Z,98881.34
2023-03-07T15:32:02.835Z,98884.75
2023-03-07T15:34:40.658Z,98874.94
2023-03-07T15:37:29.712Z,98882.47
2023-03-07T15:40:07.971Z,98891.41
2023-03-07T15:42:49.367Z,98895.03
2023-03-07T15:45:33.892Z,98908.09
2023-03-07T15:48:32.083Z,98904.16
2023-03-07T15:51:04.438Z,98909.63
2023-03-07T15:53:38.342Z,98908.59
2023-03-07T15:56:40.885Z,98915.00
2023-03-07T15:59:21.767Z,98912.09
2023-03-07T16:01:48.868Z,98925.19
2023-03-07T16:04:37.640Z,98915.38
2023-03-07T16:07:06.348Z,98918.28
2023-03-07T16:09:33.657Z,98908.72
2023-03-07T16:12:00.670Z,98918.75
2023-03-07T16:14:33.412Z,98926.78
2023-03-07T16:17:04.239Z,98932.41
2023-03-07T16:19:32.235Z,98929.44
2023-03-07T16:21:59.506Z,98931.78
2023-03-07T16:24:26.562Z,98923.34
2023-03-07T16:26:53.582Z,98919.56
2023-03-07T16:29:23.064Z,98910.50
2023-03-07T16:31:50.523Z,98918.22
2023-03-07T16:34:21.706Z,98931.22
2023-03-07T16:36:48.859Z,98929.06
2023-03-07T16:39:17.888Z,98932.44
2023-03-07T16:41:48.590Z,98919.63
2023-03-07T16:44:18.957Z,98935.28
2023-03-07T16:46:59.041Z,98934.72
2023-03-07T16:49:25.950Z,98933.34
2023-03-07T16:52:05.084Z,98934.16
2023-03-07T16:54:33.631Z,98951.09
2023-03-07T16:57:02.778Z,98960.09
2023-03-07T16:59:35.824Z,98960.59
2023-03-07T17:02:18.818Z,98958.97
2023-03-07T17:04:46.186Z,98971.91
2023-03-07T17:07:20.145Z,98960.75
2023-03-07T17:09:47.250Z,98962.13
2023-03-07T17:12:15.548Z,98967.16
2023-03-07T17:14:42.836Z,98978.00
2023-03-07T17:17:35.434Z,98967.34
2023-03-07T17:20:05.630Z,98974.31
2023-03-07T17:22:32.766Z,98971.72
2023-03-07T17:25:01.143Z,98991.38
2023-03-07T17:27:28.649Z,98988.75
2023-03-07T17:29:55.969Z,98977.81
2023-03-07T17:32:23.219Z,98979.59
2023-03-07T17:34:50.196Z,98981.03
2023-03-07T17:37:17.850Z,98986.03
2023-03-07T17:39:45.641Z,98998.47
2023-03-07T17:42:12.939Z,99001.09
2023-03-07T17:44:40.183Z,98993.16
2023-03-07T17:47:07.533Z,98995.81
2023-03-07T17:49:38.081Z,99005.84
2023-03-07T17:52:06.790Z,98989.31
2023-03-07T17:54:33.937Z,98996.53
2023-03-07T17:57:01.942Z,98995.72
2023-03-07T17:59:32.481Z,98991.72
2023-03-07T18:01:59.622Z,99000.72
2023-03-07T18:04:28.612Z,98998.53
2023-03-07T18:06:55.588Z,99011.06
2023-03-07T18:09:23.257Z,99002.00
2023-03-07T18:11:50.181Z,99007.28
2023-03-07T18:14:17.501Z,99006.13
2023-03-07T18:16:44.957Z,98995.69
2023-03-07T18:19:25.312Z,99007.97
2023-03-07T18:21:53.060Z,99011.09
2023-03-07T18:24:29.992Z,99004.44
2023-03-07T18:27:02.604Z,99005.25
2023-03-07T18:29:30.723Z,99003.88
2023-03-07T18:31:57.724Z,99005.16
2023-03-07T18:34:24.951Z,99008.84
2023-03-07T18:36:52.939Z,99011.97
2023-03-07T18:39:24.058Z,99025.22
2023-03-07T18:41:51.797Z,99018.16
2023-03-07T18:44:19.637Z,99026.03
2023-03-07T18:46:46.757Z,99022.56
2023-03-07T18:49:13.815Z,99018.00
2023-03-07T18:51:42.734Z,99023.38
2023-03-07T18:54:10.186Z,99030.19
2023-03-07T18:56:37.245Z,99029.88
2023-03-07T18:59:04.478Z,99024.00
2023-03-07T19:01:35.611Z,99031.63
2023-03-07T19:04:04.272Z,99027.13
2023-03-07T19:06:40.723Z,99041.72
2023-03-07T19:09:17.651Z,99031.38
2023-03-07T19:11:44.645Z,99038.19
2023-03-07T19:14:12.002Z,99047.41
2023-03-07T19:16:39.767Z,99046.84
2023-03-07T19:19:06.970Z,99060.66
2023-03-07T19:21:34.134Z,99036.50
2023-03-07T19:24:04.420Z,99048.69
2023-03-07T19:26:31.655Z,99045.16
2023-03-07T19:28:58.945Z,99048.34
2023-03-07T19:31:29.618Z,99046.66
2023-03-07T19:33:58.986Z,99052.19
2023-03-07T19:36:28.654Z,99065.19
2023-03-07T19:38:59.086Z,99071.84
2023-03-07T19:41:28.859Z,99071.84
2023-03-07T19:43:59.019Z,99078.50
2023-03-07T19:46:26.127Z,99055.53
2023-03-07T19:48:53.364Z,99074.16
2023-03-07T19:51:25.968Z,99072.56
2023-03-07T19:53:56.931Z,99084.75
2023-03-07T19:56:29.703Z,99079.13
2023-03-07T19:58:59.909Z,99085.31
2023-03-07T20:01:28.957Z,99084.19
2023-03-07T20:03:56.841Z,99077.28
2023-03-07T20:06:30.829Z,99078.66
2023-03-07T20:08:59.978Z,99085.78
2023-03-07T20:11:35.841Z,99084.75
2023-03-07T20:14:06.561Z,99078.88
2023-03-07T20:16:35.280Z,99087.53
2023-03-07T20:19:06.768Z,99098.94
2023-03-07T20:21:36.343Z,99107.66
2023-03-07T20:24:03.951Z,99105.81
2023-03-07T20:26:34.779Z,99117.44
2023-03-07T20:29:04.328Z,99122.75
2023-03-07T20:31:31.898Z,99115.28
2023-03-07T20:34:00.581Z,99119.84
2023-03-07T20:36:31.094Z,99118.47
2023-03-07T20:39:01.740Z,99120.31
2023-03-07T20:41:31.822Z,99128.59
2023-03-07T20:44:03.627Z,99125.84
2023-03-07T20:46:31.919Z,99134.38
2023-03-07T20:49:00.976Z,99127.00
2023-03-07T20:51:31.472Z,99122.75
2023-03-07T20:54:07.935Z,99121.13
2023-03-07T20:56:38.470Z,99122.63
2023-03-07T20:59:06.160Z,99139.09
2023-03-07T21:01:34.959Z,99142.06
2023-03-07T21:04:11.308Z,99148.63
2023-03-07T21:06:42.677Z,99146.22
2023-03-07T21:09:12.077Z,99159.78
2023-03-07T21:11:47.825Z,99159.31
2023-03-07T21:14:17.476Z,99157.94
2023-03-07T21:16:44.444Z,99159.09
2023-03-07T21:19:14.936Z,99167.25
2023-03-07T21:21:42.434Z,99182.09
2023-03-07T21:24:12.423Z,99187.16
2023-03-07T21:26:39.444Z,99174.16
2023-03-07T21:29:08.898Z,99184.19
2023-03-07T21:31:37.214Z,99186.34
2023-03-07T21:34:13.216Z,99189.69
2023-03-07T21:36:40.323Z,99202.13
2023-03-07T21:39:09.909Z,99192.59
2023-03-07T21:41:37.488Z,99198.91
2023-03-07T21:44:07.384Z,99185.56
2023-03-07T21:46:34.537Z,99206.84
2023-03-07T21:49:01.745Z,99201.56
2023-03-07T21:51:28.849Z,99206.84
2023-03-07T21:53:55.794Z,99217.53
2023-03-07T21:56:23.887Z,99210.06
2023-03-07T21:58:51.797Z,99213.97
2023-03-07T22:01:26.674Z,99223.31
2023-03-07T22:03:56.644Z,99211.00
2023-03-07T22:06:24.861Z,99232.28
2023-03-07T22:08:52.009Z,99226.41
2023-03-07T22:11:19.059Z,99215.50
2023-03-07T22:13:46.129Z,99225.84
2023-03-07T22:16:16.796Z,99216.84
2023-03-07T22:18:43.956Z,99230.69
2023-03-07T22:21:14.235Z,99246.09
2023-03-07T22:23:42.321Z,99249.19
2023-03-07T22:26:11.979Z,99238.47
2023-03-07T22:28:40.515Z,99249.97
2023-03-07T22:31:11.796Z,99245.25
2023-03-07T22:33:40.091Z,99252.38
2023-03-07T22:36:10.817Z,99250.88
2023-03-07T22:38:38.072Z,99251.69
2023-03-07T22:41:15.544Z,99256.19
2023-03-07T22:43:43.070Z,99257.44
2023-03-07T22:46:10.797Z,99264.34
2023-03-07T22:48:37.946Z,99246.97
2023-03-07T22:51:09.833Z,99258.47
2023-03-07T22:53:36.853Z,99259.41
2023-03-07T22:56:10.190Z,99266.66
2023-03-07T22:58:37.222Z,99264.69
2023-03-07T23:01:22.257Z,99258.59
2023-03-07T23:03:51.793Z,99266.97
2023-03-07T23:06:21.703Z,99262.28
2023-03-07T23:08:51.751Z,99270.44
2023-03-07T23:11:22.125Z,99268.38
2023-03-07T23:13:49.080Z,99271.69
2023-03-07T23:16:20.429Z,99271.25
2023-03-07T23:18:50.635Z,99283.66
2023-03-07T23:21:20.661Z,99277.78
2023-03-07T23:23:48.184Z,99276.41
2023-03-07T23:26:31.341Z,99279.84
2023-03-07T23:28:59.478Z,99267.31
2023-03-07T23:31:30.787Z,99279.97
2023-03-07T23:34:05.861Z,99274.91
2023-03-07T23:36:33.872Z,99277.53
2023-03-07T23:39:01.191Z,99283.28
2023-03-07T23:41:28.470Z,99288.00
2023-03-07T23:43:59.038Z,99282.34
2023-03-07T23:46:27.014Z,99286.25
2023-03-07T23:48:55.630Z,99291.41
2023-03-07T23:51:24.395Z,99294.88
2023-03-07T23:53:51.440Z,99291.88
2023-03-07T23:56:18.458Z,99306.13
2023-03-07T23:58:50.168Z,99304.16
